createdAt,value
2018-02-18T00:02:34.684Z,37.17
2018-02-18T00:05:09.235Z,39.97
2018-02-18T00:07:43.904Z,32.13
2018-02-18T00:10:18.903Z,41.10
2018-02-18T00:12:53.621Z,34.63
2018-02-18T00:15:28.409Z,40.67
2018-02-18T00:18:04.020Z,37.77
2018-02-18T00:20:38.933Z,38.23
2018-02-18T00:23:13.804Z,37.27
2018-02-18T00:25:49.891Z,38.20
2018-02-18T00:28:24.344Z,30.93
2018-02-18T00:30:59.340Z,35.13
2018-02-18T00:33:34.299Z,32.73
2018-02-18T00:36:09.373Z,37.30
2018-02-18T00:38:44.353Z,36.83
2018-02-18T00:41:19.464Z,36.40
2018-02-18T00:43:54.851Z,37.03
2018-02-18T00:46:30.069Z,36.10
2018-02-18T00:49:04.790Z,35.10
2018-02-18T00:51:39.684Z,41.17
2018-02-18T00:54:14.887Z,37.70
2018-02-18T00:56:50.299Z,44.58
2018-02-18T00:59:25.884Z,34.67
2018-02-18T01:02:00.423Z,36.87
2018-02-18T01:04:35.791Z,37.80
2018-02-18T01:07:10.380Z,36.70
2018-02-18T01:09:45.256Z,34.50
2018-02-18T01:12:19.957Z,36.80
2018-02-18T01:14:55.019Z,39.10
2018-02-18T01:17:29.896Z,38.53
2018-02-18T01:20:04.204Z,37.37
2018-02-18T01:22:39.248Z,37.40
2018-02-18T01:25:14.132Z,44.73
2018-02-18T01:27:50.312Z,47.45
2018-02-18T01:30:24.967Z,34.37
2018-02-18T01:32:59.512Z,37.87
2018-02-18T01:35:34.364Z,32.47
2018-02-18T01:38:09.179Z,36.70
2018-02-18T01:40:44.267Z,38.70
2018-02-18T01:43:19.124Z,36.40
2018-02-18T01:45:54.259Z,40.05
2018-02-18T01:48:29.127Z,36.43
2018-02-18T01:51:04.179Z,32.63
2018-02-18T01:53:40.007Z,40.90
2018-02-18T01:56:14.473Z,38.07
2018-02-18T01:58:50.495Z,34.65
2018-02-18T02:01:25.037Z,44.40
2018-02-18T02:04:00.128Z,33.27
2018-02-18T02:06:35.080Z,40.53
2018-02-18T02:09:10.221Z,42.63
2018-02-18T02:11:45.175Z,37.73
2018-02-18T02:14:20.169Z,39.70
2018-02-18T02:16:55.212Z,35.17
2018-02-18T02:19:30.147Z,26.77
2018-02-18T02:22:05.107Z,42.58
2018-02-18T02:24:40.084Z,41.13
2018-02-18T02:27:14.544Z,40.13
2018-02-18T02:29:50.415Z,39.35
2018-02-18T02:32:25.082Z,40.20
2018-02-18T02:35:00.220Z,34.50
2018-02-18T02:37:34.868Z,37.80
2018-02-18T02:40:09.737Z,44.60
2018-02-18T02:42:44.482Z,37.50
2018-02-18T02:45:19.187Z,38.33
2018-02-18T02:47:54.364Z,39.67
2018-02-18T02:50:29.229Z,29.40
2018-02-18T02:53:04.244Z,35.13
2018-02-18T02:55:39.273Z,30.23
2018-02-18T02:58:14.582Z,34.70
2018-02-18T03:00:50.572Z,36.55
2018-02-18T03:03:25.436Z,33.83
2018-02-18T03:06:00.586Z,37.80
2018-02-18T03:08:35.436Z,36.37
2018-02-18T03:11:10.511Z,30.23
2018-02-18T03:13:45.669Z,29.50
2018-02-18T03:16:21.161Z,32.22
2018-02-18T03:18:55.867Z,37.83
2018-02-18T03:21:30.360Z,29.73
2018-02-18T03:24:06.487Z,34.57
2018-02-18T03:26:41.189Z,35.77
2018-02-18T03:29:16.167Z,29.00
2018-02-18T03:31:51.503Z,33.00
2018-02-18T03:34:26.332Z,36.50
2018-02-18T03:37:01.383Z,28.62
2018-02-18T03:39:36.148Z,37.05
2018-02-18T03:42:10.596Z,30.50
2018-02-18T03:44:45.532Z,33.83
2018-02-18T03:47:20.664Z,27.57
2018-02-18T03:49:55.623Z,28.77
2018-02-18T03:52:30.360Z,34.03
2018-02-18T03:55:04.949Z,26.43
2018-02-18T03:57:39.744Z,33.20
2018-02-18T04:00:14.620Z,37.93
2018-02-18T04:02:50.606Z,42.00
2018-02-18T04:05:25.668Z,37.23
2018-02-18T04:08:00.648Z,33.00
2018-02-18T04:10:35.719Z,33.93
2018-02-18T04:13:10.587Z,35.77
2018-02-18T04:15:45.399Z,31.30
2018-02-18T04:18:20.375Z,35.17
2018-02-18T04:20:55.503Z,38.75
2018-02-18T04:23:30.444Z,36.83
2018-02-18T04:26:05.540Z,29.73
2018-02-18T04:28:40.656Z,38.00
2018-02-18T04:31:15.423Z,35.83
2018-02-18T04:33:50.827Z,38.70
2018-02-18T04:36:25.452Z,35.77
2018-02-18T04:39:00.418Z,35.67
2018-02-18T04:41:35.476Z,33.90
2018-02-18T04:44:10.295Z,30.53
2018-02-18T04:46:45.420Z,27.07
2018-02-18T04:49:20.308Z,32.13
2018-02-18T04:51:55.368Z,38.33
2018-02-18T04:54:30.432Z,27.67
2018-02-18T04:57:05.276Z,29.02
2018-02-18T04:59:39.932Z,27.70
2018-02-18T05:02:15.339Z,35.93
2018-02-18T05:04:50.732Z,32.20
2018-02-18T05:07:25.441Z,32.83
2018-02-18T05:10:00.308Z,30.52
2018-02-18T05:12:35.279Z,26.50
2018-02-18T05:15:10.243Z,37.60
2018-02-18T05:17:44.928Z,29.70
2018-02-18T05:20:19.667Z,33.87
2018-02-18T05:22:54.625Z,31.83
2018-02-18T05:25:29.587Z,35.57
2018-02-18T05:28:04.420Z,31.40
2018-02-18T05:30:39.492Z,29.37
2018-02-18T05:33:14.496Z,30.10
2018-02-18T05:35:50.896Z,29.93
2018-02-18T05:38:25.498Z,33.23
2018-02-18T05:41:00.687Z,39.30
2018-02-18T05:43:35.247Z,32.08
2018-02-18T05:46:10.543Z,25.60
2018-02-18T05:48:45.532Z,33.63
2018-02-18T05:51:20.416Z,28.50
2018-02-18T05:53:55.472Z,33.25
2018-02-18T05:56:30.527Z,34.00
2018-02-18T05:59:05.104Z,28.10
2018-02-18T06:01:40.572Z,27.17
2018-02-18T06:04:15.508Z,30.50
2018-02-18T06:06:50.866Z,31.98
2018-02-18T06:09:25.648Z,36.40
2018-02-18T06:12:00.836Z,24.83
2018-02-18T06:14:35.716Z,33.77
2018-02-18T06:17:10.564Z,28.47
2018-02-18T06:19:45.595Z,36.70
2018-02-18T06:22:20.478Z,31.17
2018-02-18T06:24:55.023Z,30.87
2018-02-18T06:27:30.385Z,34.83
2018-02-18T06:30:05.828Z,30.00
2018-02-18T06:32:41.152Z,26.90
2018-02-18T06:35:16.015Z,27.30
2018-02-18T06:37:51.100Z,29.27
2018-02-18T06:40:25.618Z,30.47
2018-02-18T06:43:00.563Z,29.50
2018-02-18T06:45:35.636Z,28.33
2018-02-18T06:48:10.512Z,28.90
2018-02-18T06:50:45.711Z,29.40
2018-02-18T06:53:20.596Z,25.95
2018-02-18T06:55:55.218Z,29.23
2018-02-18T06:58:30.103Z,30.83
2018-02-18T07:01:05.244Z,28.17
2018-02-18T07:03:40.106Z,23.00
2018-02-18T07:06:15.000Z,30.07
2018-02-18T07:08:50.957Z,32.08
2018-02-18T07:11:26.051Z,30.20
2018-02-18T07:14:01.436Z,35.70
2018-02-18T07:16:36.176Z,27.93
2018-02-18T07:19:10.880Z,26.93
2018-02-18T07:21:45.970Z,29.57
2018-02-18T07:24:20.865Z,29.77
2018-02-18T07:26:55.929Z,32.00
2018-02-18T07:29:30.669Z,32.10
2018-02-18T07:32:05.971Z,27.47
2018-02-18T07:34:40.767Z,24.27
2018-02-18T07:37:15.740Z,27.97
2018-02-18T07:39:50.964Z,26.20
2018-02-18T07:42:26.228Z,24.33
2018-02-18T07:45:00.848Z,21.77
2018-02-18T07:47:36.104Z,30.30
2018-02-18T07:50:10.805Z,27.37
2018-02-18T07:52:45.867Z,28.67
2018-02-18T07:55:20.840Z,26.27
2018-02-18T07:57:55.904Z,30.90
2018-02-18T08:00:30.758Z,23.00
2018-02-18T08:03:05.987Z,32.07
2018-02-18T08:05:41.037Z,25.63
2018-02-18T08:08:15.895Z,26.47
2018-02-18T08:10:51.147Z,28.63
2018-02-18T08:13:25.803Z,31.80
2018-02-18T08:16:00.900Z,21.37
2018-02-18T08:18:35.885Z,20.43
2018-02-18T08:21:11.636Z,20.98
2018-02-18T08:23:46.781Z,20.20
2018-02-18T08:26:21.615Z,26.12
2018-02-18T08:28:57.064Z,20.88
2018-02-18T08:31:31.510Z,23.33
2018-02-18T08:34:06.315Z,22.27
2018-02-18T08:36:41.760Z,20.37
2018-02-18T08:39:16.319Z,19.40
2018-02-18T08:41:51.235Z,21.77
2018-02-18T08:44:26.021Z,16.80
2018-02-18T08:47:01.078Z,20.30
2018-02-18T08:49:36.795Z,18.87
2018-02-18T08:52:11.276Z,18.03
2018-02-18T08:54:46.029Z,19.00
2018-02-18T08:57:20.888Z,21.10
2018-02-18T08:59:55.766Z,19.42
2018-02-18T09:02:30.288Z,17.93
2018-02-18T09:05:05.636Z,20.35
2018-02-18T09:07:40.176Z,18.87
2018-02-18T09:10:15.118Z,20.70
2018-02-18T09:12:50.058Z,21.00
2018-02-18T09:15:24.825Z,15.40
2018-02-18T09:17:59.832Z,22.83
2018-02-18T09:20:34.887Z,20.80
2018-02-18T09:23:09.788Z,18.42
2018-02-18T09:25:45.236Z,16.60
2018-02-18T09:28:20.345Z,18.40
2018-02-18T09:30:55.524Z,27.20
2018-02-18T09:33:29.968Z,18.60
2018-02-18T09:36:05.155Z,21.10
2018-02-18T09:38:40.315Z,19.53
2018-02-18T09:41:15.340Z,23.17
2018-02-18T09:43:51.340Z,19.83
2018-02-18T09:46:32.855Z,18.43
2018-02-18T09:49:07.237Z,20.60
2018-02-18T09:51:42.080Z,19.57
2018-02-18T09:54:17.076Z,17.10
2018-02-18T09:56:51.556Z,20.90
2018-02-18T09:59:26.505Z,15.57
2018-02-18T10:02:01.677Z,19.30
2018-02-18T10:04:37.024Z,22.40
2018-02-18T10:07:12.270Z,23.67
2018-02-18T10:09:46.636Z,18.57
2018-02-18T10:12:21.579Z,17.30
2018-02-18T10:14:57.055Z,16.87
2018-02-18T10:17:32.131Z,18.73
2018-02-18T10:20:07.072Z,19.87
2018-02-18T10:22:42.035Z,18.27
2018-02-18T10:25:17.090Z,21.13
2018-02-18T10:27:52.228Z,17.00
2018-02-18T10:30:27.203Z,18.30
2018-02-18T10:33:02.252Z,16.00
2018-02-18T10:35:37.239Z,21.27
2018-02-18T10:38:12.085Z,37.33
2018-02-18T10:40:47.028Z,18.60
2018-02-18T10:43:22.040Z,18.03
2018-02-18T10:45:57.304Z,24.55
2018-02-18T10:48:32.220Z,21.53
2018-02-18T10:51:06.988Z,25.40
2018-02-18T10:53:42.077Z,18.17
2018-02-18T10:56:16.635Z,17.70
2018-02-18T10:58:51.585Z,21.13
2018-02-18T11:01:26.495Z,18.00
2018-02-18T11:04:01.539Z,22.40
2018-02-18T11:06:36.336Z,24.57
2018-02-18T11:09:11.239Z,19.70
2018-02-18T11:11:46.227Z,21.87
2018-02-18T11:14:21.044Z,22.20
2018-02-18T11:16:56.370Z,17.40
2018-02-18T11:19:31.237Z,24.20
2018-02-18T11:22:07.000Z,22.40
2018-02-18T11:24:41.604Z,24.10
2018-02-18T11:27:16.661Z,23.17
2018-02-18T11:29:51.364Z,21.73
2018-02-18T11:32:26.393Z,24.13
2018-02-18T11:35:01.367Z,23.07
2018-02-18T11:37:36.249Z,22.50
2018-02-18T11:40:11.351Z,24.03
2018-02-18T11:42:46.376Z,21.00
2018-02-18T11:45:21.308Z,18.30
2018-02-18T11:47:56.435Z,24.17
2018-02-18T11:50:31.420Z,22.20
2018-02-18T11:53:06.399Z,22.33
2018-02-18T11:55:41.357Z,22.20
2018-02-18T11:58:16.360Z,23.27
2018-02-18T12:00:51.517Z,25.45
2018-02-18T12:03:26.573Z,22.40
2018-02-18T12:06:01.707Z,25.73
2018-02-18T12:08:36.555Z,27.53
2018-02-18T12:11:11.455Z,23.50
2018-02-18T12:13:46.507Z,23.17
2018-02-18T12:16:21.387Z,25.57
2018-02-18T12:18:56.359Z,21.90
2018-02-18T12:21:30.848Z,23.50
2018-02-18T12:24:05.884Z,23.30
2018-02-18T12:26:40.351Z,24.80
2018-02-18T12:29:15.477Z,24.20
2018-02-18T12:31:51.772Z,21.55
2018-02-18T12:34:26.396Z,23.33
2018-02-18T12:37:01.328Z,24.12
2018-02-18T12:39:35.891Z,25.17
2018-02-18T12:42:10.847Z,22.40
2018-02-18T12:44:45.796Z,24.70
2018-02-18T12:47:20.645Z,26.40
2018-02-18T12:49:55.850Z,24.87
2018-02-18T12:52:31.283Z,22.85
2018-02-18T12:55:05.377Z,21.33
2018-02-18T12:57:40.572Z,23.90
2018-02-18T13:00:15.438Z,27.13
2018-02-18T13:02:51.795Z,24.05
2018-02-18T13:05:26.676Z,22.07
2018-02-18T13:08:01.583Z,25.53
2018-02-18T13:10:36.459Z,26.57
2018-02-18T13:13:11.444Z,29.30
2018-02-18T13:15:46.460Z,28.67
2018-02-18T13:18:20.899Z,25.93
2018-02-18T13:20:56.065Z,30.07
2018-02-18T13:23:30.752Z,25.00
2018-02-18T13:26:05.938Z,26.13
2018-02-18T13:28:40.947Z,23.53
2018-02-18T13:31:15.952Z,23.10
2018-02-18T13:33:51.828Z,26.02
2018-02-18T13:36:27.527Z,24.67
2018-02-18T13:39:03.028Z,26.65
2018-02-18T13:41:38.087Z,24.60
2018-02-18T13:44:12.944Z,26.53
2018-02-18T13:46:48.100Z,26.93
2018-02-18T13:49:22.980Z,27.30
2018-02-18T13:51:57.757Z,22.42
2018-02-18T13:54:32.668Z,24.47
2018-02-18T13:57:07.856Z,25.80
2018-02-18T13:59:42.639Z,21.90
2018-02-18T14:02:17.719Z,22.40
2018-02-18T14:04:52.934Z,31.60
2018-02-18T14:07:27.548Z,23.40
2018-02-18T14:10:02.620Z,27.13
2018-02-18T14:12:37.189Z,21.20
2018-02-18T14:15:12.581Z,28.37
2018-02-18T14:17:47.208Z,23.93
2018-02-18T14:20:22.155Z,26.07
2018-02-18T14:22:57.170Z,22.93
2018-02-18T14:25:32.603Z,25.58
2018-02-18T14:28:07.467Z,22.83
2018-02-18T14:30:42.087Z,27.47
2018-02-18T14:33:17.039Z,24.07
2018-02-18T14:35:52.076Z,24.07
2018-02-18T14:38:26.835Z,26.23
2018-02-18T14:41:01.924Z,25.98
2018-02-18T14:43:47.356Z,23.93
2018-02-18T14:46:33.307Z,23.67
2018-02-18T14:49:19.335Z,21.20
2018-02-18T14:52:04.967Z,21.10
2018-02-18T14:57:40.935Z,21.60
2018-02-18T15:00:16.107Z,20.40
2018-02-18T15:02:52.082Z,26.08
2018-02-18T15:05:26.723Z,28.13
2018-02-18T15:08:01.996Z,27.37
2018-02-18T15:10:37.332Z,25.57
2018-02-18T15:13:12.312Z,29.00
2018-02-18T15:15:47.699Z,22.40
2018-02-18T15:18:23.059Z,22.87
2018-02-18T15:20:58.067Z,22.63
2018-02-18T15:23:33.187Z,23.57
2018-02-18T15:26:08.097Z,22.13
2018-02-18T15:28:43.355Z,26.90
2018-02-18T15:31:18.764Z,20.73
2018-02-18T15:33:53.946Z,24.10
2018-02-18T15:36:28.979Z,22.37
2018-02-18T15:39:03.675Z,21.50
2018-02-18T15:41:38.916Z,27.90
2018-02-18T15:44:13.799Z,20.77
2018-02-18T15:46:49.088Z,22.87
2018-02-18T15:49:23.932Z,27.03
2018-02-18T15:51:58.884Z,27.17
2018-02-18T15:54:33.940Z,24.83
2018-02-18T15:57:09.575Z,21.77
2018-02-18T15:59:44.826Z,24.00
2018-02-18T16:02:19.775Z,25.83
2018-02-18T16:04:55.168Z,22.20
2018-02-18T16:07:30.371Z,26.33
2018-02-18T16:10:06.048Z,24.15
2018-02-18T16:12:40.971Z,26.10
2018-02-18T16:15:15.819Z,23.07
2018-02-18T16:17:52.236Z,21.48
2018-02-18T16:20:27.841Z,22.60
2018-02-18T16:23:03.409Z,22.10
2018-02-18T16:25:38.278Z,22.53
2018-02-18T16:28:13.479Z,20.07
2018-02-18T16:30:48.621Z,20.77
2018-02-18T16:33:23.808Z,23.40
2018-02-18T16:35:58.775Z,25.35
2018-02-18T16:38:33.419Z,23.00
2018-02-18T16:41:08.587Z,27.15
2018-02-18T16:43:42.850Z,21.57
2018-02-18T16:46:17.815Z,21.03
2018-02-18T16:48:52.939Z,23.50
2018-02-18T16:51:28.043Z,25.10
2018-02-18T16:54:03.067Z,21.90
2018-02-18T16:56:37.940Z,24.83
2018-02-18T16:59:12.772Z,27.87
2018-02-18T17:01:47.541Z,30.30
2018-02-18T17:04:22.488Z,28.63
2018-02-18T17:06:57.368Z,29.50
2018-02-18T17:09:32.520Z,29.70
2018-02-18T17:12:08.364Z,25.98
2018-02-18T17:14:43.164Z,30.17
2018-02-18T17:17:18.543Z,26.87
2018-02-18T17:19:53.375Z,32.77
2018-02-18T17:22:28.137Z,37.10
2018-02-18T17:25:03.472Z,98.53
2018-02-18T17:27:38.435Z,69.07
2018-02-18T17:30:14.327Z,67.73
2018-02-18T17:32:51.921Z,75.70
2018-02-18T17:35:27.290Z,64.40
2018-02-18T17:38:02.543Z,56.90
2018-02-18T17:40:37.212Z,62.67
2018-02-18T17:43:12.368Z,51.13
2018-02-18T17:45:47.140Z,43.07
2018-02-18T17:48:22.095Z,48.17
2018-02-18T17:50:57.311Z,43.33
2018-02-18T17:53:32.140Z,33.77
2018-02-18T17:56:07.075Z,37.30
2018-02-18T17:58:41.908Z,29.70
2018-02-18T18:01:17.108Z,29.60
2018-02-18T18:03:52.460Z,25.10
2018-02-18T18:06:27.112Z,27.40
2018-02-18T18:09:02.551Z,24.83
2018-02-18T18:11:37.288Z,23.50
2018-02-18T18:14:12.612Z,23.97
2018-02-18T18:16:47.353Z,23.93
2018-02-18T18:19:22.371Z,23.80
2018-02-18T18:21:57.677Z,26.03
2018-02-18T18:24:32.344Z,26.27
2018-02-18T18:27:07.320Z,24.63
2018-02-18T18:29:42.372Z,23.80
2018-02-18T18:32:17.539Z,27.57
2018-02-18T18:34:52.643Z,26.60
2018-02-18T18:37:27.711Z,32.77
2018-02-18T18:40:03.489Z,28.75
2018-02-18T18:42:38.356Z,29.05
2018-02-18T18:45:13.276Z,25.10
2018-02-18T18:47:50.339Z,34.00
2018-02-18T18:50:25.283Z,32.23
2018-02-18T18:53:00.528Z,37.83
2018-02-18T18:55:35.440Z,37.20
2018-02-18T18:58:10.584Z,40.25
2018-02-18T19:00:45.328Z,34.00
2018-02-18T19:03:21.167Z,44.30
2018-02-18T19:05:56.460Z,42.20
2018-02-18T19:08:31.433Z,39.57
2018-02-18T19:11:06.659Z,30.73
2018-02-18T19:13:41.838Z,24.23
2018-02-18T19:16:16.597Z,28.70
2018-02-18T19:18:52.771Z,23.25
2018-02-18T19:21:27.634Z,24.70
2018-02-18T19:24:03.164Z,25.77
2018-02-18T19:26:38.437Z,25.90
2018-02-18T19:29:13.988Z,28.87
2018-02-18T19:31:50.108Z,25.47
2018-02-18T19:34:25.399Z,33.43
2018-02-18T19:37:00.531Z,29.37
2018-02-18T19:39:35.591Z,26.37
2018-02-18T19:42:10.071Z,27.35
2018-02-18T19:44:45.379Z,27.05
2018-02-18T19:47:20.494Z,26.77
2018-02-18T19:49:55.725Z,25.77
2018-02-18T19:52:30.575Z,30.53
2018-02-18T19:55:05.292Z,29.08
2018-02-18T19:57:39.651Z,23.70
2018-02-18T20:00:14.479Z,29.03
2018-02-18T20:02:48.971Z,24.87
2018-02-18T20:05:24.336Z,23.63
2018-02-18T20:07:59.683Z,21.73
2018-02-18T20:10:34.549Z,28.20
2018-02-18T20:13:09.723Z,20.90
2018-02-18T20:15:44.383Z,22.77
2018-02-18T20:18:19.376Z,24.33
2018-02-18T20:20:54.452Z,25.75
2018-02-18T20:23:29.514Z,23.97
2018-02-18T20:26:04.983Z,24.40
2018-02-18T20:28:39.889Z,25.00
2018-02-18T20:31:14.998Z,25.47
2018-02-18T20:33:50.495Z,26.20
2018-02-18T20:36:25.504Z,25.73
2018-02-18T20:39:00.468Z,21.27
2018-02-18T20:41:35.495Z,25.87
2018-02-18T20:44:10.513Z,20.67
2018-02-18T20:46:45.848Z,27.37
2018-02-18T20:49:20.972Z,20.13
2018-02-18T20:51:56.389Z,25.08
2018-02-18T20:54:31.375Z,29.57
2018-02-18T20:57:06.744Z,23.50
2018-02-18T20:59:41.965Z,20.67
2018-02-18T21:02:17.284Z,21.92
2018-02-18T21:04:52.840Z,23.75
2018-02-18T21:07:27.891Z,22.07
2018-02-18T21:10:02.972Z,23.43
2018-02-18T21:12:39.347Z,24.20
2018-02-18T21:15:14.403Z,20.52
2018-02-18T21:17:49.595Z,22.83
2018-02-18T21:20:24.609Z,20.30
2018-02-18T21:22:59.485Z,22.80
2018-02-18T21:25:34.643Z,28.70
2018-02-18T21:28:09.799Z,29.07
2018-02-18T21:30:45.059Z,23.10
2018-02-18T21:33:19.963Z,25.87
2018-02-18T21:35:55.025Z,21.90
2018-02-18T21:38:29.683Z,28.63
2018-02-18T21:41:04.792Z,21.33
2018-02-18T21:43:40.559Z,26.13
2018-02-18T21:46:15.548Z,26.73
2018-02-18T21:48:50.712Z,27.50
2018-02-18T21:51:25.711Z,22.93
2018-02-18T21:54:00.987Z,28.53
2018-02-18T21:56:35.948Z,22.80
2018-02-18T21:59:11.176Z,23.13
2018-02-18T22:01:45.924Z,23.00
2018-02-18T22:04:20.784Z,24.90
2018-02-18T22:06:56.067Z,25.00
2018-02-18T22:09:30.980Z,19.20
2018-02-18T22:12:05.909Z,18.43
2018-02-18T22:14:40.969Z,20.97
2018-02-18T22:17:15.981Z,21.73
2018-02-18T22:19:50.949Z,25.73
2018-02-18T22:22:25.795Z,25.17
2018-02-18T22:25:00.912Z,23.23
2018-02-18T22:27:35.999Z,22.53
2018-02-18T22:30:11.265Z,24.80
2018-02-18T22:32:45.875Z,22.27
2018-02-18T22:35:20.831Z,22.67
2018-02-18T22:37:55.983Z,24.07
2018-02-18T22:40:30.659Z,22.52
2018-02-18T22:43:05.663Z,28.35
2018-02-18T22:45:40.724Z,24.43
2018-02-18T22:48:15.801Z,24.57
2018-02-18T22:50:50.703Z,22.13
2018-02-18T22:53:25.735Z,25.97
2018-02-18T22:56:00.728Z,24.20
2018-02-18T22:58:35.836Z,26.83
2018-02-18T23:01:10.924Z,22.90
2018-02-18T23:03:45.837Z,22.60
2018-02-18T23:06:20.844Z,21.17
2018-02-18T23:08:56.143Z,20.43
2018-02-18T23:11:30.864Z,26.70
2018-02-18T23:14:06.046Z,21.03
2018-02-18T23:16:40.983Z,21.37
2018-02-18T23:19:16.020Z,22.03
2018-02-18T23:21:51.183Z,25.53
2018-02-18T23:24:25.824Z,26.77
2018-02-18T23:27:00.867Z,21.20
2018-02-18T23:29:35.783Z,20.87
2018-02-18T23:32:11.019Z,24.85
2018-02-18T23:34:45.867Z,20.27
2018-02-18T23:37:21.006Z,20.33
2018-02-18T23:39:56.159Z,21.50
2018-02-18T23:42:30.808Z,21.97
2018-02-18T23:45:06.107Z,21.70
2018-02-18T23:47:40.948Z,20.20
2018-02-18T23:50:15.805Z,24.40
2018-02-18T23:52:50.907Z,19.90
2018-02-18T23:55:25.956Z,23.80
2018-02-18T23:58:00.947Z,22.73
